createdAt,value
2023-04-10T00:01:19.157Z,1012.69
2023-04-10T00:04:19.304Z,1012.75
2023-04-10T00:07:19.171Z,1012.79
2023-04-10T00:10:19.162Z,1012.84
2023-04-10T00:13:19.160Z,1012.86
2023-04-10T00:16:19.196Z,1012.87
2023-04-10T00:19:19.156Z,1012.9
2023-04-10T00:22:19.163Z,1012.87
2023-04-10T00:25:19.154Z,1012.9
2023-04-10T00:28:19.166Z,1012.85
2023-04-10T00:31:19.160Z,1012.82
2023-04-10T00:34:19.153Z,1012.85
2023-04-10T00:37:19.143Z,1012.87
2023-04-10T00:40:19.164Z,1012.88
2023-04-10T00:43:19.150Z,1012.85
2023-04-10T00:46:19.182Z,1012.84
2023-04-10T00:49:19.145Z,1012.84
2023-04-10T00:52:19.143Z,1012.86
2023-04-10T00:55:19.148Z,1012.81
2023-04-10T00:58:19.145Z,1012.81
2023-04-10T01:01:19.246Z,1012.8
2023-04-10T01:04:19.231Z,1012.79
2023-04-10T01:07:19.146Z,1012.79
2023-04-10T01:10:19.139Z,1012.83
2023-04-10T01:13:19.140Z,1012.87
2023-04-10T01:16:19.153Z,1012.92
2023-04-10T01:19:19.128Z,1012.9
2023-04-10T01:22:19.138Z,1012.91
2023-04-10T01:25:19.121Z,1012.87
2023-04-10T01:28:19.144Z,1012.86
2023-04-10T01:31:19.163Z,1012.91
2023-04-10T01:34:19.154Z,1012.91
2023-04-10T01:37:19.124Z,1012.97
2023-04-10T01:40:19.133Z,1012.92
2023-04-10T01:43:19.124Z,1012.84
2023-04-10T01:46:19.176Z,1012.85
2023-04-10T01:49:19.132Z,1012.84
2023-04-10T01:52:19.121Z,1012.83
2023-04-10T01:55:19.129Z,1012.85
2023-04-10T01:58:19.122Z,1012.76
2023-04-10T02:01:26.600Z,1012.71
2023-04-10T02:04:19.240Z,1012.64
2023-04-10T02:07:19.126Z,1012.65
2023-04-10T02:10:19.135Z,1012.67
2023-04-10T02:13:19.120Z,1012.63
2023-04-10T02:16:19.166Z,1012.57
2023-04-10T02:19:19.122Z,1012.55
2023-04-10T02:22:19.111Z,1012.49
2023-04-10T02:25:19.120Z,1012.49
2023-04-10T02:28:19.112Z,1012.46
2023-04-10T02:31:19.137Z,1012.43
2023-04-10T02:34:19.116Z,1012.45
2023-04-10T02:37:19.117Z,1012.47
2023-04-10T02:40:19.121Z,1012.51
2023-04-10T02:43:19.108Z,1012.48
2023-04-10T02:46:19.171Z,1012.53
2023-04-10T02:49:19.107Z,1012.52
2023-04-10T02:52:19.111Z,1012.49
2023-04-10T02:55:19.119Z,1012.5
2023-04-10T02:58:19.113Z,1012.5
2023-04-10T03:01:19.128Z,1012.46
2023-04-10T03:04:19.232Z,1012.45
2023-04-10T03:07:19.112Z,1012.45
2023-04-10T03:10:19.127Z,1012.4
2023-04-10T03:13:19.114Z,1012.4
2023-04-10T03:16:19.247Z,1012.37
2023-04-10T03:19:19.113Z,1012.3
2023-04-10T03:22:19.113Z,1012.29
2023-04-10T03:25:19.108Z,1012.28
2023-04-10T03:28:19.101Z,1012.26
2023-04-10T03:31:19.137Z,1012.22
2023-04-10T03:34:19.114Z,1012.18
2023-04-10T03:37:19.099Z,1012.19
2023-04-10T03:40:19.100Z,1012.19
2023-04-10T03:43:19.103Z,1012.2
2023-04-10T03:46:19.113Z,1012.16
2023-04-10T03:49:19.090Z,1012.16
2023-04-10T03:52:19.091Z,1012.16
2023-04-10T03:55:19.175Z,1012.19
2023-04-10T03:58:19.105Z,1012.15
2023-04-10T04:01:19.082Z,1012.15
2023-04-10T04:04:19.144Z,1012.15
2023-04-10T04:07:19.094Z,1012.11
2023-04-10T04:10:19.086Z,1012.16
2023-04-10T04:13:19.084Z,1012.13
2023-04-10T04:16:19.097Z,1012.15
2023-04-10T04:19:19.086Z,1012.14
2023-04-10T04:22:19.066Z,1012.14
2023-04-10T04:25:19.108Z,1012.1
2023-04-10T04:28:19.091Z,1012.1
2023-04-10T04:31:19.084Z,1012.18
2023-04-10T04:34:19.078Z,1012.19
2023-04-10T04:37:19.106Z,1012.22
2023-04-10T04:40:19.075Z,1012.25
2023-04-10T04:43:19.078Z,1012.26
2023-04-10T04:46:19.116Z,1012.19
2023-04-10T04:49:19.083Z,1012.22
2023-04-10T04:52:19.074Z,1012.25
2023-04-10T04:55:19.097Z,1012.2
2023-04-10T04:58:19.070Z,1012.22
2023-04-10T05:01:19.127Z,1012.23
2023-04-10T05:04:19.190Z,1012.2
2023-04-10T05:07:19.065Z,1012.2
2023-04-10T05:10:19.070Z,1012.21
2023-04-10T05:13:19.063Z,1012.25
2023-04-10T05:16:19.224Z,1012.22
2023-04-10T05:19:19.068Z,1012.26
2023-04-10T05:22:19.072Z,1012.23
2023-04-10T05:25:19.064Z,1012.23
2023-04-10T05:28:19.067Z,1012.27
2023-04-10T05:31:19.080Z,1012.29
2023-04-10T05:34:19.067Z,1012.32
2023-04-10T05:37:19.064Z,1012.41
2023-04-10T05:40:19.069Z,1012.42
2023-04-10T05:43:19.061Z,1012.44
2023-04-10T05:46:19.088Z,1012.45
2023-04-10T05:49:19.077Z,1012.48
2023-04-10T05:52:19.072Z,1012.47
2023-04-10T05:55:19.061Z,1012.52
2023-04-10T05:58:19.074Z,1012.47
2023-04-10T06:01:19.075Z,1012.46
2023-04-10T06:04:19.171Z,1012.49
2023-04-10T06:07:19.068Z,1012.49
2023-04-10T06:10:19.063Z,1012.46
2023-04-10T06:13:19.082Z,1012.42
2023-04-10T06:16:19.084Z,1012.44
2023-04-10T06:19:19.061Z,1012.45
2023-04-10T06:22:19.067Z,1012.41
2023-04-10T06:25:19.094Z,1012.42
2023-04-10T06:28:19.420Z,1012.41
2023-04-10T06:31:19.160Z,1012.4
2023-04-10T06:34:19.131Z,1012.35
2023-04-10T06:37:19.128Z,1012.32
2023-04-10T06:40:19.120Z,1012.28
2023-04-10T06:43:19.119Z,1012.3
2023-04-10T06:46:19.132Z,1012.33
2023-04-10T06:49:19.123Z,1012.35
2023-04-10T06:52:19.119Z,1012.33
2023-04-10T06:55:19.123Z,1012.32
2023-04-10T06:58:19.120Z,1012.34
2023-04-10T07:01:19.152Z,1012.31
2023-04-10T07:04:19.127Z,1012.32
2023-04-10T07:07:19.109Z,1012.31
2023-04-10T07:10:19.126Z,1012.29
2023-04-10T07:13:19.139Z,1012.29
2023-04-10T07:16:19.379Z,1012.29
2023-04-10T07:19:19.143Z,1012.26
2023-04-10T07:22:19.122Z,1012.29
2023-04-10T07:25:19.164Z,1012.32
2023-04-10T07:28:19.134Z,1012.28
2023-04-10T07:31:19.129Z,1012.24
2023-04-10T07:34:19.129Z,1012.19
2023-04-10T07:37:19.114Z,1012.13
2023-04-10T07:40:19.129Z,1012.1
2023-04-10T07:43:19.121Z,1012.11
2023-04-10T07:46:19.172Z,1012.16
2023-04-10T07:49:19.127Z,1012.19
2023-04-10T07:52:19.139Z,1012.15
2023-04-10T07:55:19.116Z,1012.1
2023-04-10T07:58:19.142Z,1012.08
2023-04-10T08:01:19.115Z,1012.08
2023-04-10T08:04:19.245Z,1012.02
2023-04-10T08:07:19.123Z,1012
2023-04-10T08:10:19.121Z,1011.88
2023-04-10T08:13:19.115Z,1011.81
2023-04-10T08:16:19.121Z,1011.74
2023-04-10T08:19:19.113Z,1011.78
2023-04-10T08:22:19.130Z,1011.76
2023-04-10T08:25:19.110Z,1011.79
2023-04-10T08:28:19.131Z,1011.69
2023-04-10T08:31:19.159Z,1011.64
2023-04-10T08:34:19.122Z,1011.56
2023-04-10T08:37:19.165Z,1011.56
2023-04-10T08:40:19.107Z,1011.49
2023-04-10T08:43:19.114Z,1011.45
2023-04-10T08:46:19.107Z,1011.43
2023-04-10T08:49:19.106Z,1011.38
2023-04-10T08:52:19.101Z,1011.33
2023-04-10T08:55:19.096Z,1011.32
2023-04-10T08:58:19.103Z,1011.32
2023-04-10T09:01:19.107Z,1011.23
2023-04-10T09:04:19.126Z,1011.22
2023-04-10T09:07:19.117Z,1011.18
2023-04-10T09:10:19.112Z,1011.13
2023-04-10T09:13:19.102Z,1011.1
2023-04-10T09:16:19.141Z,1011.05
2023-04-10T09:19:19.093Z,1010.98
2023-04-10T09:22:19.103Z,1010.96
2023-04-10T09:25:19.096Z,1010.85
2023-04-10T09:28:19.098Z,1010.79
2023-04-10T09:31:19.120Z,1010.71
2023-04-10T09:34:19.102Z,1010.72
2023-04-10T09:37:19.088Z,1010.62
2023-04-10T09:40:19.105Z,1010.62
2023-04-10T09:43:19.085Z,1010.59
2023-04-10T09:46:19.102Z,1010.56
2023-04-10T09:49:19.086Z,1010.51
2023-04-10T09:52:19.087Z,1010.45
2023-04-10T09:55:19.095Z,1010.42
2023-04-10T09:58:19.091Z,1010.38
2023-04-10T10:01:19.082Z,1010.36
2023-04-10T10:04:19.288Z,1010.26
2023-04-10T10:07:19.135Z,1010.25
2023-04-10T10:10:19.078Z,1010.14
2023-04-10T10:13:19.096Z,1010.21
2023-04-10T10:16:19.120Z,1010.11
2023-04-10T10:19:19.093Z,1010.03
2023-04-10T10:22:19.092Z,1010.02
2023-04-10T10:25:19.086Z,1009.96
2023-04-10T10:28:19.081Z,1009.95
2023-04-10T10:31:19.090Z,1009.83
2023-04-10T10:34:19.092Z,1009.78
2023-04-10T10:37:19.080Z,1009.7
2023-04-10T10:40:19.077Z,1009.73
2023-04-10T10:43:19.119Z,1009.63
2023-04-10T10:46:19.173Z,1009.55
2023-04-10T10:49:19.079Z,1009.49
2023-04-10T10:52:19.084Z,1009.42
2023-04-10T10:55:19.079Z,1009.43
2023-04-10T10:58:19.070Z,1009.41
2023-04-10T11:01:19.102Z,1009.31
2023-04-10T11:04:19.120Z,1009.26
2023-04-10T11:07:19.086Z,1009.26
2023-04-10T11:10:19.074Z,1009.24
2023-04-10T11:13:19.086Z,1009.17
2023-04-10T11:16:19.091Z,1009.08
2023-04-10T11:19:20.849Z,1008.92
2023-04-10T11:22:19.084Z,1008.83
2023-04-10T11:25:19.064Z,1008.74
2023-04-10T11:28:19.066Z,1008.69
2023-04-10T11:31:19.088Z,1008.6
2023-04-10T11:34:19.073Z,1008.55
2023-04-10T11:37:19.064Z,1008.49
2023-04-10T11:40:19.064Z,1008.49
2023-04-10T11:43:19.058Z,1008.54
2023-04-10T11:46:19.117Z,1008.48
2023-04-10T11:49:19.066Z,1008.47
2023-04-10T11:52:19.055Z,1008.5
2023-04-10T11:55:19.083Z,1008.41
2023-04-10T11:58:19.048Z,1008.26
2023-04-10T12:01:19.057Z,1008.23
2023-04-10T12:04:19.199Z,1008.19
2023-04-10T12:07:19.041Z,1008.19
2023-04-10T12:10:19.056Z,1008.09
2023-04-10T12:13:19.054Z,1008.03
2023-04-10T12:16:19.052Z,1008.05
2023-04-10T12:19:19.062Z,1007.95
2023-04-10T12:22:19.047Z,1007.93
2023-04-10T12:25:19.040Z,1007.84
2023-04-10T12:28:19.042Z,1007.77
2023-04-10T12:31:19.087Z,1007.79
2023-04-10T12:34:19.055Z,1007.73
2023-04-10T12:37:19.054Z,1007.74
2023-04-10T12:40:19.052Z,1007.72
2023-04-10T12:43:19.045Z,1007.68
2023-04-10T12:46:19.049Z,1007.63
2023-04-10T12:49:19.068Z,1007.54
2023-04-10T12:52:19.068Z,1007.57
2023-04-10T12:55:19.062Z,1007.53
2023-04-10T12:58:19.035Z,1007.5
2023-04-10T13:01:19.057Z,1007.46
2023-04-10T13:04:19.095Z,1007.35
2023-04-10T13:07:19.035Z,1007.3
2023-04-10T13:10:19.052Z,1007.29
2023-04-10T13:13:19.035Z,1007.25
2023-04-10T13:16:19.041Z,1007.18
2023-04-10T13:19:19.022Z,1007.11
2023-04-10T13:22:19.030Z,1007.08
2023-04-10T13:25:19.033Z,1007.08
2023-04-10T13:28:19.026Z,1007.03
2023-04-10T13:31:19.070Z,1006.97
2023-04-10T13:34:19.037Z,1007.02
2023-04-10T13:37:19.022Z,1006.93
2023-04-10T13:40:19.026Z,1006.85
2023-04-10T13:43:19.033Z,1006.8
2023-04-10T13:46:19.045Z,1006.79
2023-04-10T13:49:19.016Z,1006.74
2023-04-10T13:52:19.025Z,1006.71
2023-04-10T13:55:19.023Z,1006.65
2023-04-10T13:58:19.028Z,1006.6
2023-04-10T14:01:19.058Z,1006.52
2023-04-10T14:04:19.023Z,1006.51
2023-04-10T14:07:19.056Z,1006.45
2023-04-10T14:10:19.026Z,1006.41
2023-04-10T14:13:19.046Z,1006.36
2023-04-10T14:16:19.043Z,1006.36
2023-04-10T14:19:19.023Z,1006.29
2023-04-10T14:22:19.017Z,1006.25
2023-04-10T14:25:19.023Z,1006.17
2023-04-10T14:28:19.016Z,1006.16
2023-04-10T14:31:19.044Z,1006.13
2023-04-10T14:34:19.014Z,1006.07
2023-04-10T14:37:19.047Z,1005.95
2023-04-10T14:40:19.012Z,1005.91
2023-04-10T14:43:19.013Z,1005.83
2023-04-10T14:46:19.015Z,1005.82
2023-04-10T14:49:19.020Z,1005.76
2023-04-10T14:52:19.007Z,1005.71
2023-04-10T14:55:19.031Z,1005.64
2023-04-10T14:58:19.038Z,1005.61
2023-04-10T15:01:19.053Z,1005.55
2023-04-10T15:04:19.031Z,1005.46
2023-04-10T15:07:19.007Z,1005.39
2023-04-10T15:10:19.018Z,1005.29
2023-04-10T15:13:19.004Z,1005.26
2023-04-10T15:16:19.014Z,1005.23
2023-04-10T15:19:19.011Z,1005.16
2023-04-10T15:22:19.014Z,1005.15
2023-04-10T15:25:19.011Z,1005.18
2023-04-10T15:28:19.020Z,1005.11
2023-04-10T15:31:19.082Z,1005.07
2023-04-10T15:34:19.042Z,1005.02
2023-04-10T15:37:19.014Z,1004.9
2023-04-10T15:40:19.006Z,1004.86
2023-04-10T15:43:19.006Z,1004.76
2023-04-10T15:46:19.079Z,1004.67
2023-04-10T15:49:26.380Z,1004.57
2023-04-10T15:52:18.999Z,1004.47
2023-04-10T15:55:19.008Z,1004.41
2023-04-10T15:58:19.004Z,1004.36
2023-04-10T16:01:19.059Z,1004.34
2023-04-10T16:04:19.080Z,1004.32
2023-04-10T16:07:18.993Z,1004.2
2023-04-10T16:10:18.996Z,1004.18
2023-04-10T16:13:18.999Z,1004.08
2023-04-10T16:16:19.010Z,1004.15
2023-04-10T16:19:18.987Z,1004.15
2023-04-10T16:22:18.992Z,1004.16
2023-04-10T16:25:20.996Z,1004.15
2023-04-10T16:28:18.991Z,1004.19
2023-04-10T16:31:19.023Z,1004.15
2023-04-10T16:34:19.031Z,1004.12
2023-04-10T16:37:18.986Z,1004.1
2023-04-10T16:40:18.988Z,1004.08
2023-04-10T16:43:18.979Z,1004.05
2023-04-10T16:46:19.034Z,1004.08
2023-04-10T16:49:18.978Z,1004.04
2023-04-10T16:52:18.985Z,1003.94
2023-04-10T16:55:18.982Z,1003.81
2023-04-10T16:58:18.982Z,1003.73
2023-04-10T17:01:19.052Z,1003.75
2023-04-10T17:04:19.026Z,1003.72
2023-04-10T17:07:18.974Z,1003.68
2023-04-10T17:10:18.988Z,1003.67
2023-04-10T17:13:20.272Z,1003.62
2023-04-10T17:16:18.978Z,1003.65
2023-04-10T17:19:18.971Z,1003.62
2023-04-10T17:22:18.972Z,1003.6
2023-04-10T17:25:18.985Z,1003.55
2023-04-10T17:28:18.973Z,1003.51
2023-04-10T17:31:18.975Z,1003.4
2023-04-10T17:34:18.976Z,1003.41
2023-04-10T17:37:18.974Z,1003.41
2023-04-10T17:40:18.975Z,1003.3
2023-04-10T17:43:18.981Z,1003.31
2023-04-10T17:46:18.972Z,1003.3
2023-04-10T17:49:19.009Z,1003.3
2023-04-10T17:52:18.959Z,1003.34
2023-04-10T17:55:20.601Z,1003.34
2023-04-10T17:58:18.964Z,1003.22
2023-04-10T18:01:18.993Z,1003.19
2023-04-10T18:04:19.044Z,1003.08
2023-04-10T18:07:18.953Z,1002.98
2023-04-10T18:10:18.958Z,1002.97
2023-04-10T18:13:18.966Z,1003.17
2023-04-10T18:16:18.986Z,1003.27
2023-04-10T18:19:18.950Z,1003.31
2023-04-10T18:22:18.961Z,1003.4
2023-04-10T18:25:18.992Z,1003.28
2023-04-10T18:28:20.447Z,1003.19
2023-04-10T18:31:19.057Z,1003.07
2023-04-10T18:34:18.959Z,1003.07
2023-04-10T18:37:18.952Z,1003.08
2023-04-10T18:40:18.960Z,1003.07
2023-04-10T18:43:18.959Z,1003.02
2023-04-10T18:46:18.946Z,1003.08
2023-04-10T18:49:18.944Z,1003.03
2023-04-10T18:52:18.946Z,1003.08
2023-04-10T18:55:18.953Z,1003.13
2023-04-10T18:58:18.947Z,1003.16
2023-04-10T19:01:18.948Z,1003.16
2023-04-10T19:04:18.980Z,1003.11
2023-04-10T19:07:18.949Z,1003.11
2023-04-10T19:10:18.933Z,1003.16
2023-04-10T19:13:18.944Z,1003.18
2023-04-10T19:16:18.991Z,1003.24
2023-04-10T19:19:18.943Z,1003.13
2023-04-10T19:22:18.928Z,1003.11
2023-04-10T19:25:18.941Z,1003.13
2023-04-10T19:28:18.944Z,1003.1
2023-04-10T19:31:18.957Z,1002.94
2023-04-10T19:34:18.928Z,1002.93
2023-04-10T19:37:18.937Z,1002.93
2023-04-10T19:40:18.933Z,1002.9
2023-04-10T19:43:18.968Z,1002.95
2023-04-10T19:46:18.977Z,1002.94
2023-04-10T19:49:19.080Z,1002.91
2023-04-10T19:52:18.926Z,1002.85
2023-04-10T19:55:19.226Z,1002.81
2023-04-10T19:58:35.812Z,1002.79
2023-04-10T20:01:18.961Z,1002.72
2023-04-10T20:04:18.980Z,1002.66
2023-04-10T20:07:18.940Z,1002.59
2023-04-10T20:10:18.924Z,1002.48
2023-04-10T20:13:18.933Z,1002.36
2023-04-10T20:16:18.957Z,1002.35
2023-04-10T20:19:18.944Z,1002.16
2023-04-10T20:22:18.916Z,1002.21
2023-04-10T20:25:18.919Z,1002.26
2023-04-10T20:28:18.918Z,1002.17
2023-04-10T20:31:18.920Z,1002.11
2023-04-10T20:34:18.916Z,1002.01
2023-04-10T20:37:18.913Z,1001.92
2023-04-10T20:40:18.915Z,1001.86
2023-04-10T20:43:18.920Z,1001.85
2023-04-10T20:46:18.922Z,1001.9
2023-04-10T20:49:18.913Z,1001.84
2023-04-10T20:52:18.907Z,1001.79
2023-04-10T20:55:18.908Z,1001.68
2023-04-10T20:58:18.904Z,1001.65
2023-04-10T21:01:18.933Z,1001.72
2023-04-10T21:04:18.916Z,1001.74
2023-04-10T21:07:18.910Z,1001.81
2023-04-10T21:10:18.903Z,1001.76
2023-04-10T21:13:18.907Z,1001.72
2023-04-10T21:16:18.928Z,1001.54
2023-04-10T21:19:18.905Z,1001.38
2023-04-10T21:22:18.904Z,1001.26
2023-04-10T21:25:18.898Z,1001.32
2023-04-10T21:28:18.901Z,1001.38
2023-04-10T21:31:18.937Z,1001.34
2023-04-10T21:34:18.910Z,1001.19
2023-04-10T21:37:18.906Z,1000.93
2023-04-10T21:40:18.902Z,1000.71
2023-04-10T21:43:18.901Z,1000.77
2023-04-10T21:46:18.929Z,1000.81
2023-04-10T21:49:18.906Z,1000.88
2023-04-10T21:52:18.895Z,1000.88
2023-04-10T21:55:18.903Z,1000.83
2023-04-10T21:58:18.894Z,1000.76
2023-04-10T22:01:18.909Z,1000.69
2023-04-10T22:04:19.013Z,1000.66
2023-04-10T22:07:18.897Z,1000.69
2023-04-10T22:10:18.904Z,1000.74
2023-04-10T22:13:27.916Z,1000.8
2023-04-10T22:16:18.932Z,1000.93
2023-04-10T22:19:18.882Z,1001.04
2023-04-10T22:22:20.470Z,1001.01
2023-04-10T22:25:18.923Z,1001.14
2023-04-10T22:28:18.926Z,1001.32
2023-04-10T22:31:18.928Z,1001.29
2023-04-10T22:34:18.880Z,1001.29
2023-04-10T22:37:18.884Z,1001.15
2023-04-10T22:40:18.883Z,1001.34
2023-04-10T22:43:18.881Z,1001.38
2023-04-10T22:46:18.931Z,1001.43
2023-04-10T22:49:18.890Z,1001.44
2023-04-10T22:52:18.869Z,1001.4
2023-04-10T22:55:18.879Z,1001.24
2023-04-10T22:58:18.876Z,1001.16
2023-04-10T23:01:18.887Z,1001.14
2023-04-10T23:04:18.909Z,1001.08
2023-04-10T23:07:18.872Z,1000.99
2023-04-10T23:10:18.865Z,1000.96
2023-04-10T23:13:18.871Z,1000.94
2023-04-10T23:16:18.900Z,1000.99
2023-04-10T23:19:18.884Z,1001.02
2023-04-10T23:22:18.868Z,1001.03
2023-04-10T23:25:18.869Z,1001.05
2023-04-10T23:28:18.870Z,1001
2023-04-10T23:31:18.878Z,1001.05
2023-04-10T23:34:18.870Z,1001.02
2023-04-10T23:37:18.870Z,1001.03
2023-04-10T23:40:18.868Z,1001.02
2023-04-10T23:43:18.877Z,1000.94
2023-04-10T23:46:18.881Z,1001.12
2023-04-10T23:49:18.864Z,1001.33
2023-04-10T23:52:18.867Z,1001.4
2023-04-10T23:55:18.865Z,1001.19
2023-04-10T23:58:18.859Z,1001.2
